Time;durP1;ratioP1;P1;durP2;ratioP2;P2;SDS_P1;SDS_P2;PMS_P1;PMS_P2;Temp;Humidity;BMP_temperature;BMP_pressure;BME280_temperature;BME280_humidity;BME280_pressure;Samples;Min_cycle;Max_cycle;Signal;HPM_P1;HPM_P2
2023/07/07 00:01:09;;;;;;;9.40;3.88;;;10.60;99.90;;;;;;6161325;23;20023;-91
2023/07/07 00:03:35;;;;;;;9.45;3.55;;;10.70;99.90;;;;;;6161853;23;20343;-90
2023/07/07 00:06:02;;;;;;;8.63;4.20;;;10.80;99.90;;;;;;6161359;23;20024;-91
2023/07/07 00:08:28;;;;;;;12.00;5.45;;;10.60;99.90;;;;;;6162196;23;20044;-91
2023/07/07 00:10:58;;;;;;;11.38;5.68;;;10.80;99.90;;;;;;6162572;23;20030;-90
2023/07/07 00:13:24;;;;;;;9.23;5.25;;;11.10;99.90;;;;;;6162774;23;20082;-90
2023/07/07 00:15:50;;;;;;;6.53;4.28;;;11.20;99.90;;;;;;6163092;23;20019;-91
2023/07/07 00:18:26;;;;;;;5.50;3.97;;;10.50;99.90;;;;;;6162589;23;20055;-90
2023/07/07 00:20:57;;;;;;;8.60;3.40;;;10.70;99.90;;;;;;6162258;23;19996;-91
2023/07/07 00:23:24;;;;;;;3.97;3.05;;;11.00;99.90;;;;;;6162101;23;20070;-90
2023/07/07 00:26:03;;;;;;;4.25;2.53;;;10.40;99.90;;;;;;6162010;23;20066;-91
2023/07/07 00:28:30;;;;;;;3.75;2.08;;;10.40;99.90;;;;;;6160952;23;20048;-90
2023/07/07 00:30:56;;;;;;;6.28;2.33;;;10.30;99.90;;;;;;6160593;23;20020;-90
2023/07/07 00:33:24;;;;;;;5.22;2.60;;;10.60;99.90;;;;;;6161123;23;20095;-90
2023/07/07 00:35:51;;;;;;;8.80;6.10;;;10.50;99.90;;;;;;6161830;23;20020;-90
2023/07/07 00:38:17;;;;;;;11.73;6.45;;;10.40;99.90;;;;;;6160506;23;20012;-90
2023/07/07 00:40:43;;;;;;;8.95;5.25;;;10.20;99.90;;;;;;6184727;23;20444;-90
2023/07/07 00:43:13;;;;;;;13.15;7.68;;;10.10;99.90;;;;;;6160922;23;20020;-90
2023/07/07 00:45:39;;;;;;;12.82;7.40;;;10.30;99.90;;;;;;6161039;23;20009;-91
2023/07/07 00:48:10;;;;;;;11.18;7.03;;;8.10;99.90;;;;;;6159318;23;20008;-90
2023/07/07 00:50:42;;;;;;;12.57;6.97;;;10.70;99.90;;;;;;6184379;23;20058;-91
2023/07/07 00:53:08;;;;;;;;;;;10.20;99.90;;;;;;6161265;23;20012;-90
2023/07/07 00:55:42;;;;;;;10.35;6.35;;;10.20;99.90;;;;;;6185482;23;19939;-90
2023/07/07 00:58:11;;;;;;;16.55;8.48;;;10.20;99.90;;;;;;6160881;23;20699;-91
2023/07/07 01:00:41;;;;;;;15.18;8.80;;;10.20;99.90;;;;;;6161548;23;20009;-90
2023/07/07 01:03:13;;;;;;;17.65;11.07;;;10.30;99.90;;;;;;6160960;23;20209;-91
2023/07/07 01:05:41;;;;;;;15.80;10.57;;;10.20;99.90;;;;;;6160337;23;20028;-92
2023/07/07 01:08:07;;;;;;;18.08;11.93;;;9.60;99.90;;;;;;6160939;23;20044;-91
2023/07/07 01:10:33;;;;;;;16.55;12.70;;;10.40;99.90;;;;;;6185025;23;20017;-90
2023/07/07 01:12:59;;;;;;;17.55;13.50;;;8.30;99.90;;;;;;6160720;23;20040;-91
2023/07/07 01:15:30;;;;;;;26.80;13.65;;;10.50;99.90;;;;;;6161008;23;20016;-91
2023/07/07 01:18:18;;;;;;;20.65;13.65;;;10.60;99.90;;;;;;6161089;23;20098;-91
2023/07/07 01:21:04;;;;;;;23.77;14.40;;;10.60;99.90;;;;;;6152167;23;20103;-92
2023/07/07 01:23:42;;;;;;;18.25;12.98;;;11.40;99.90;;;;;;6185526;23;20058;-92
2023/07/07 01:26:14;;;;;;;23.08;13.63;;;10.70;99.90;;;;;;6160178;23;20126;-90
2023/07/07 01:29:24;;;;;;;18.38;12.70;;;11.70;99.90;;;;;;6160744;23;20348;-90
2023/07/07 01:32:02;;;;;;;20.95;12.50;;;10.70;99.90;;;;;;6150641;23;20764;-90
2023/07/07 01:34:29;;;;;;;20.42;14.45;;;10.60;99.90;;;;;;6160041;23;20020;-91
2023/07/07 01:36:54;;;;;;;22.42;14.15;;;10.60;99.90;;;;;;6161021;23;20521;-89
2023/07/07 01:39:23;;;;;;;22.25;14.20;;;10.70;99.90;;;;;;6159585;23;20021;-90
2023/07/07 01:41:58;;;;;;;23.40;13.95;;;11.50;99.90;;;;;;6160485;23;20013;-88
2023/07/07 01:44:42;;;;;;;27.23;14.88;;;10.70;99.90;;;;;;6187118;23;20013;-90
2023/07/07 01:47:18;;;;;;;24.30;15.38;;;10.90;99.90;;;;;;6162878;23;20012;-90
2023/07/07 01:49:59;;;;;;;28.85;15.38;;;10.70;99.90;;;;;;6162810;23;20440;-90
2023/07/07 01:52:36;;;;;;;23.63;14.95;;;10.70;99.90;;;;;;6161976;23;20016;-90
2023/07/07 01:55:47;;;;;;;19.92;13.40;;;10.80;99.90;;;;;;6162084;23;20024;-91
2023/07/07 01:58:15;;;;;;;23.00;15.70;;;10.80;99.90;;;;;;6163273;23;20044;-91
2023/07/07 02:00:43;;;;;;;29.40;15.80;;;10.80;99.90;;;;;;6162861;23;20020;-89
2023/07/07 02:03:10;;;;;;;27.42;16.27;;;10.80;99.90;;;;;;6162562;23;20021;-90
2023/07/07 02:05:36;;;;;;;19.35;13.95;;;10.90;99.90;;;;;;6162048;23;20092;-89
2023/07/07 02:08:03;;;;;;;25.98;17.33;;;10.90;99.90;;;;;;6161370;23;20015;-91
2023/07/07 02:10:29;;;;;;;25.80;16.55;;;11.00;99.90;;;;;;6161380;23;20038;-90
2023/07/07 02:12:55;;;;;;;25.80;16.73;;;11.00;99.90;;;;;;6161886;23;20459;-90
2023/07/07 02:15:21;;;;;;;24.45;17.27;;;8.60;99.90;;;;;;6162662;23;20056;-89
2023/07/07 02:17:47;;;;;;;27.75;18.13;;;11.00;99.90;;;;;;6161640;23;20028;-92
2023/07/07 02:20:13;;;;;;;29.63;18.10;;;11.10;99.90;;;;;;6162686;23;20103;-90
2023/07/07 02:22:39;;;;;;;29.73;18.40;;;11.10;99.90;;;;;;6161848;23;20079;-90
2023/07/07 02:25:06;;;;;;;25.17;18.52;;;11.20;99.90;;;;;;6160342;23;20016;-92
2023/07/07 02:27:33;;;;;;;24.80;17.85;;;11.10;99.90;;;;;;6160120;23;20082;-91
2023/07/07 02:29:59;;;;;;;31.48;17.23;;;11.20;99.90;;;;;;6185453;23;20016;-90
2023/07/07 02:32:25;;;;;;;31.65;19.30;;;11.20;99.90;;;;;;6162794;23;20017;-90
2023/07/07 02:34:55;;;;;;;33.92;19.33;;;11.30;99.90;;;;;;6162485;23;20036;-91
2023/07/07 02:37:21;;;;;;;28.73;18.50;;;11.30;99.90;;;;;;6162549;23;20352;-91
2023/07/07 02:39:47;;;;;;;29.20;19.05;;;11.90;99.90;;;;;;6161808;23;20016;-90
2023/07/07 02:42:14;;;;;;;28.67;19.27;;;11.90;99.90;;;;;;6161884;23;20075;-93
2023/07/07 02:44:40;;;;;;;29.27;19.48;;;12.30;99.90;;;;;;6161316;23;20980;-92
2023/07/07 02:47:07;;;;;;;29.65;19.02;;;9.50;99.90;;;;;;6160758;23;20016;-91
2023/07/07 02:49:33;;;;;;;30.88;19.48;;;11.30;99.90;;;;;;6161518;23;20048;-92
2023/07/07 02:51:59;;;;;;;30.92;20.95;;;11.50;99.90;;;;;;6158776;23;20472;-91
2023/07/07 02:54:25;;;;;;;29.83;19.75;;;11.30;99.90;;;;;;6181868;23;20194;-91
2023/07/07 02:56:51;;;;;;;26.90;20.02;;;11.30;99.90;;;;;;6156693;23;20070;-91
2023/07/07 02:59:17;;;;;;;30.42;19.55;;;9.60;99.90;;;;;;6155979;23;20020;-93
2023/07/07 03:01:43;;;;;;;28.60;19.50;;;12.40;99.90;;;;;;6155572;23;20441;-91
2023/07/07 03:04:10;;;;;;;34.42;21.17;;;11.40;99.90;;;;;;6155949;23;20016;-91
2023/07/07 03:06:36;;;;;;;30.42;19.70;;;11.50;99.90;;;;;;6156862;23;20038;-91
2023/07/07 03:09:02;;;;;;;24.50;18.38;;;11.50;99.90;;;;;;6156070;23;20017;-91
2023/07/07 03:11:28;;;;;;;35.95;20.70;;;11.40;99.90;;;;;;6181429;23;20048;-89
2023/07/07 03:13:54;;;;;;;28.73;19.98;;;11.50;99.90;;;;;;6161419;23;20436;-92
2023/07/07 03:16:24;;;;;;;26.58;19.63;;;11.50;99.90;;;;;;6161097;23;20012;-90
2023/07/07 03:18:55;;;;;;;29.48;19.27;;;10.40;99.90;;;;;;6160638;23;20012;-91
2023/07/07 03:21:22;;;;;;;28.38;20.65;;;11.60;99.90;;;;;;6161064;23;20079;-92
2023/07/07 03:23:53;;;;;;;26.33;18.88;;;11.50;99.90;;;;;;6161043;23;20067;-90
2023/07/07 03:26:21;;;;;;;26.30;19.45;;;11.50;99.90;;;;;;6161629;23;20017;-91
2023/07/07 03:28:47;;;;;;;27.02;18.10;;;11.60;99.90;;;;;;6161850;23;20525;-89
2023/07/07 03:31:17;;;;;;;29.73;19.45;;;11.60;99.90;;;;;;6161654;23;20071;-91
2023/07/07 03:33:45;;;;;;;27.15;19.38;;;11.60;99.90;;;;;;6161583;23;20066;-90
2023/07/07 03:36:13;;;;;;;26.73;20.20;;;11.50;99.90;;;;;;6161451;23;20012;-89
2023/07/07 03:38:40;;;;;;;28.63;19.52;;;11.60;99.90;;;;;;6161336;23;20535;-90
2023/07/07 03:41:09;;;;;;;24.45;18.95;;;11.70;99.90;;;;;;6161213;23;20013;-91
2023/07/07 03:43:37;;;;;;;28.02;19.42;;;11.70;99.90;;;;;;6160795;23;20013;-90
2023/07/07 03:46:04;;;;;;;27.58;19.23;;;11.70;99.90;;;;;;6161170;23;20012;-91
2023/07/07 03:48:30;;;;;;;25.17;18.52;;;11.80;99.90;;;;;;6160827;23;20012;-91
2023/07/07 03:50:58;;;;;;;23.60;17.80;;;12.40;99.90;;;;;;6160936;23;20024;-91
2023/07/07 03:53:26;;;;;;;29.25;18.50;;;12.10;99.90;;;;;;6163337;23;20027;-90
2023/07/07 03:55:51;;;;;;;24.60;18.35;;;11.80;99.90;;;;;;6163750;23;20060;-91
2023/07/07 03:58:20;;;;;;;28.05;20.75;;;11.90;99.90;;;;;;6187485;23;20044;-88
2023/07/07 04:00:48;;;;;;;30.38;18.75;;;11.90;99.90;;;;;;6188608;23;20496;-92
2023/07/07 04:03:14;;;;;;;26.80;17.73;;;11.90;99.90;;;;;;6186783;23;20056;-89
2023/07/07 04:05:48;;;;;;;23.65;18.50;;;11.90;99.90;;;;;;6186328;23;20016;-90
2023/07/07 04:08:21;;;;;;;27.45;18.63;;;11.30;99.90;;;;;;6160957;23;20063;-90
2023/07/07 04:11:16;;;;;;;24.75;18.13;;;12.10;99.90;;;;;;6160561;23;20016;-89
2023/07/07 04:13:44;;;;;;;27.17;19.77;;;12.20;99.90;;;;;;6161464;23;20009;-90
2023/07/07 04:16:13;;;;;;;28.02;18.88;;;12.20;99.90;;;;;;6160976;23;20071;-90
2023/07/07 04:18:40;;;;;;;23.02;18.17;;;12.30;99.90;;;;;;6160931;23;20008;-89
2023/07/07 04:21:10;;;;;;;22.48;18.05;;;12.40;99.90;;;;;;6159072;23;20013;-89
2023/07/07 04:23:38;;;;;;;24.20;17.25;;;13.20;99.90;;;;;;6159146;23;20019;-92
2023/07/07 04:26:06;;;;;;;22.35;16.48;;;13.60;99.90;;;;;;6184843;23;20017;-90
2023/07/07 04:28:32;;;;;;;22.20;15.32;;;14.30;99.90;;;;;;6159768;23;20091;-91
2023/07/07 04:30:59;;;;;;;18.63;14.38;;;15.20;99.90;;;;;;6158924;23;20043;-90
2023/07/07 04:33:27;;;;;;;20.85;13.40;;;15.90;99.90;;;;;;6158873;23;20023;-90
2023/07/07 04:35:58;;;;;;;20.27;12.55;;;18.70;99.90;;;;;;6158429;23;20016;-89
2023/07/07 04:38:32;;;;;;;19.40;11.80;;;17.60;99.90;;;;;;6159500;23;20031;-90
2023/07/07 04:41:21;;;;;;;15.88;11.40;;;18.00;99.90;;;;;;6186983;23;20021;-91
2023/07/07 04:43:51;;;;;;;14.15;12.55;;;18.40;99.90;;;;;;6160168;23;20061;-90
2023/07/07 04:46:21;;;;;;;13.50;11.05;;;18.10;99.90;;;;;;6159530;23;20084;-90
2023/07/07 04:48:48;;;;;;;11.32;9.57;;;17.80;99.90;;;;;;6159998;23;20009;-91
2023/07/07 04:51:14;;;;;;;14.68;10.50;;;17.40;99.90;;;;;;6159998;23;20098;-91
2023/07/07 04:53:41;;;;;;;13.07;10.60;;;17.20;99.90;;;;;;6160502;23;20013;-92
2023/07/07 04:56:18;;;;;;;15.50;10.60;;;16.80;99.90;;;;;;6161756;23;20029;-93
2023/07/07 04:58:46;;;;;;;16.05;11.68;;;17.30;99.90;;;;;;6185468;23;20876;-91
2023/07/07 05:01:26;;;;;;;14.43;10.07;;;16.70;99.90;;;;;;6160953;23;20024;-92
2023/07/07 05:03:54;;;;;;;14.85;10.57;;;15.50;99.90;;;;;;6185487;23;20024;-91
2023/07/07 05:06:22;;;;;;;14.98;10.95;;;17.80;99.90;;;;;;6159655;23;20035;-93
2023/07/07 05:08:48;;;;;;;15.05;11.45;;;17.60;99.90;;;;;;6160196;23;20083;-90
2023/07/07 05:11:17;;;;;;;15.85;10.68;;;17.50;99.90;;;;;;6185827;23;20021;-91
2023/07/07 05:13:45;;;;;;;14.60;9.27;;;19.30;99.90;;;;;;6160740;23;20020;-91
2023/07/07 05:16:13;;;;;;;15.15;10.50;;;19.00;99.90;;;;;;6161699;23;20355;-92
2023/07/07 05:18:40;;;;;;;12.45;9.52;;;18.90;99.90;;;;;;6161893;23;20762;-91
2023/07/07 05:21:07;;;;;;;11.25;9.48;;;18.00;99.90;;;;;;6162374;23;20759;-91
2023/07/07 05:23:34;;;;;;;13.70;9.60;;;15.90;99.90;;;;;;6161920;23;20024;-93
2023/07/07 05:26:00;;;;;;;16.67;11.15;;;17.90;99.90;;;;;;6187721;23;20051;-92
2023/07/07 05:28:26;;;;;;;15.85;9.73;;;17.60;99.90;;;;;;6161222;23;20023;-90
2023/07/07 05:30:52;;;;;;;24.75;10.77;;;18.30;99.90;;;;;;6160717;23;20017;-89
2023/07/07 05:33:20;;;;;;;13.00;10.70;;;17.70;99.90;;;;;;6186188;23;20015;-90
2023/07/07 05:35:50;;;;;;;14.32;9.95;;;17.60;99.90;;;;;;6161748;23;20024;-91
2023/07/07 05:38:17;;;;;;;12.05;9.23;;;17.60;99.90;;;;;;6162368;23;20098;-88
2023/07/07 05:40:45;;;;;;;14.18;10.15;;;17.70;99.90;;;;;;6161491;23;20051;-92
2023/07/07 05:43:16;;;;;;;16.40;8.93;;;18.20;99.90;;;;;;6162225;23;20005;-91
2023/07/07 05:45:42;;;;;;;11.73;8.95;;;18.70;99.90;;;;;;6161825;23;20013;-89
2023/07/07 05:48:09;;;;;;;13.07;8.85;;;20.30;99.90;;;;;;6161607;23;20008;-89
2023/07/07 05:50:35;;;;;;;14.10;7.97;;;22.60;97.90;;;;;;6161005;23;20017;-93
2023/07/07 05:53:02;;;;;;;11.80;7.47;;;24.20;94.00;;;;;;6160802;23;20017;-91
2023/07/07 05:55:32;;;;;;;10.15;7.50;;;25.60;90.70;;;;;;6191032;23;20470;-92
2023/07/07 06:00:38;;;;;;;11.40;7.10;;;27.60;78.70;;;;;;6220305;23;20024;-89
2023/07/07 06:03:10;;;;;;;12.63;6.43;;;27.80;78.00;;;;;;6188104;23;20012;-90
2023/07/07 06:05:36;;;;;;;8.35;6.07;;;28.30;76.00;;;;;;6188236;23;20866;-88
2023/07/07 06:08:05;;;;;;;13.43;6.93;;;29.00;73.10;;;;;;6188653;23;20118;-88
2023/07/07 06:10:33;;;;;;;8.13;5.10;;;30.40;70.40;;;;;;6189829;23;20751;-87
2023/07/07 06:13:01;;;;;;;8.30;5.88;;;30.50;68.30;;;;;;6188886;23;20050;-89
2023/07/07 06:15:26;;;;;;;9.88;5.80;;;31.10;65.50;;;;;;6213965;23;20012;-92
2023/07/07 06:17:52;;;;;;;9.15;5.72;;;31.60;64.10;;;;;;6188751;23;20020;-93
2023/07/07 06:20:18;;;;;;;8.50;5.15;;;32.20;61.90;;;;;;6190648;23;20340;-90
2023/07/07 06:22:44;;;;;;;8.43;5.68;;;31.40;59.60;;;;;;6187962;23;20062;-92
2023/07/07 06:25:10;;;;;;;9.80;5.60;;;33.30;59.10;;;;;;6189021;23;20008;-89
2023/07/07 06:27:36;;;;;;;9.30;5.30;;;33.80;58.40;;;;;;6189058;23;20008;-88
2023/07/07 06:30:01;;;;;;;11.25;5.22;;;34.30;57.80;;;;;;6189276;23;20023;-88
2023/07/07 06:32:27;;;;;;;8.27;5.05;;;34.60;56.50;;;;;;6188745;23;20066;-89
2023/07/07 06:34:53;;;;;;;7.15;5.30;;;35.40;55.50;;;;;;6189051;23;20027;-89
2023/07/07 06:37:20;;;;;;;6.47;5.28;;;35.90;54.30;;;;;;6191221;23;20016;-88
2023/07/07 06:39:46;;;;;;;8.20;4.22;;;35.90;54.10;;;;;;6189365;23;20022;-91
2023/07/07 06:42:15;;;;;;;11.35;5.93;;;36.20;53.60;;;;;;6189849;23;20091;-91
2023/07/07 06:44:41;;;;;;;8.85;4.75;;;36.60;51.90;;;;;;6189603;23;20339;-90
2023/07/07 06:47:16;;;;;;;8.77;5.05;;;37.00;50.80;;;;;;6189865;23;20351;-89
2023/07/07 06:49:59;;;;;;;11.25;4.43;;;37.10;50.70;;;;;;6190061;23;20020;-89
2023/07/07 06:52:25;;;;;;;6.75;4.20;;;37.50;49.60;;;;;;6189630;23;20020;-91
2023/07/07 06:54:52;;;;;;;6.78;3.45;;;37.80;49.20;;;;;;6191066;23;20038;-91
2023/07/07 06:57:18;;;;;;;6.10;3.45;;;37.80;49.20;;;;;;6189558;23;20125;-90
2023/07/07 06:59:43;;;;;;;6.10;3.80;;;35.90;46.50;;;;;;6190031;23;20015;-90
2023/07/07 07:02:12;;;;;;;6.60;3.55;;;38.40;47.20;;;;;;6190785;23;20016;-91
2023/07/07 07:04:41;;;;;;;6.43;3.70;;;38.60;47.40;;;;;;6190318;23;20012;-89
2023/07/07 07:07:11;;;;;;;6.53;3.33;;;39.00;47.20;;;;;;6190960;23;20008;-91
2023/07/07 07:09:37;;;;;;;7.68;3.05;;;39.40;46.60;;;;;;6191057;23;20040;-89
2023/07/07 07:12:03;;;;;;;5.32;2.97;;;39.70;46.80;;;;;;6188008;23;20035;-89
2023/07/07 07:14:31;;;;;;;5.97;3.17;;;39.90;46.10;;;;;;6187577;23;20020;-90
2023/07/07 07:16:57;;;;;;;6.82;2.83;;;40.20;45.30;;;;;;6186596;23;20444;-90
2023/07/07 07:19:28;;;;;;;5.70;3.03;;;40.40;45.60;;;;;;6189301;23;20020;-91
2023/07/07 07:22:00;;;;;;;7.07;2.22;;;40.60;45.40;;;;;;6189731;23;20016;-90
2023/07/07 07:24:46;;;;;;;5.78;2.67;;;40.70;43.70;;;;;;6200308;23;20379;-95
